sensor_id;sensor_type;location;lat;lon;timestamp;P1;durP1;ratioP1;P2;durP2;ratioP2
8482;SDS011;4278;42.668;23.312;2022-08-01T00:02:05;2.55;;;2.30;;
8482;SDS011;4278;42.668;23.312;2022-08-01T00:04:32;3.03;;;2.53;;
8482;SDS011;4278;42.668;23.312;2022-08-01T00:06:59;2.78;;;2.38;;
8482;SDS011;4278;42.668;23.312;2022-08-01T00:09:25;3.80;;;2.70;;
8482;SDS011;4278;42.668;23.312;2022-08-01T00:11:52;3.60;;;2.38;;
8482;SDS011;4278;42.668;23.312;2022-08-01T00:14:18;2.30;;;2.10;;
8482;SDS011;4278;42.668;23.312;2022-08-01T00:16:45;3.67;;;2.47;;
8482;SDS011;4278;42.668;23.312;2022-08-01T00:19:13;3.53;;;2.60;;
8482;SDS011;4278;42.668;23.312;2022-08-01T00:21:39;3.38;;;1.92;;
8482;SDS011;4278;42.668;23.312;2022-08-01T00:24:06;3.17;;;2.20;;
8482;SDS011;4278;42.668;23.312;2022-08-01T00:26:32;3.97;;;2.17;;
8482;SDS011;4278;42.668;23.312;2022-08-01T00:28:59;4.13;;;2.03;;
8482;SDS011;4278;42.668;23.312;2022-08-01T00:31:25;5.63;;;2.20;;
8482;SDS011;4278;42.668;23.312;2022-08-01T00:33:52;3.92;;;1.80;;
8482;SDS011;4278;42.668;23.312;2022-08-01T00:36:20;2.88;;;2.20;;
8482;SDS011;4278;42.668;23.312;2022-08-01T00:38:47;3.85;;;2.10;;
8482;SDS011;4278;42.668;23.312;2022-08-01T00:41:13;6.70;;;2.13;;
8482;SDS011;4278;42.668;23.312;2022-08-01T00:43:40;4.70;;;2.50;;
8482;SDS011;4278;42.668;23.312;2022-08-01T00:46:06;2.63;;;2.42;;
8482;SDS011;4278;42.668;23.312;2022-08-01T00:48:33;3.17;;;2.50;;
8482;SDS011;4278;42.668;23.312;2022-08-01T00:51:00;2.78;;;2.53;;
8482;SDS011;4278;42.668;23.312;2022-08-01T00:53:28;4.70;;;2.53;;
8482;SDS011;4278;42.668;23.312;2022-08-01T00:55:54;3.85;;;3.00;;
8482;SDS011;4278;42.668;23.312;2022-08-01T00:58:22;4.15;;;3.20;;
8482;SDS011;4278;42.668;23.312;2022-08-01T01:00:49;6.18;;;3.38;;
8482;SDS011;4278;42.668;23.312;2022-08-01T01:03:15;7.32;;;3.55;;
8482;SDS011;4278;42.668;23.312;2022-08-01T01:05:44;5.07;;;4.00;;
8482;SDS011;4278;42.668;23.312;2022-08-01T01:08:14;4.65;;;3.60;;
8482;SDS011;4278;42.668;23.312;2022-08-01T01:10:46;4.63;;;3.58;;
8482;SDS011;4278;42.668;23.312;2022-08-01T01:13:16;5.85;;;4.03;;
8482;SDS011;4278;42.668;23.312;2022-08-01T01:15:45;3.90;;;3.20;;
8482;SDS011;4278;42.668;23.312;2022-08-01T01:18:14;5.65;;;2.75;;
8482;SDS011;4278;42.668;23.312;2022-08-01T01:20:44;2.78;;;2.58;;
8482;SDS011;4278;42.668;23.312;2022-08-01T01:23:15;3.03;;;2.67;;
8482;SDS011;4278;42.668;23.312;2022-08-01T01:25:51;3.45;;;2.92;;
8482;SDS011;4278;42.668;23.312;2022-08-01T01:28:20;3.85;;;2.65;;
8482;SDS011;4278;42.668;23.312;2022-08-01T01:30:54;2.83;;;2.43;;
8482;SDS011;4278;42.668;23.312;2022-08-01T01:33:21;2.25;;;2.05;;
8482;SDS011;4278;42.668;23.312;2022-08-01T01:35:51;4.97;;;2.40;;
8482;SDS011;4278;42.668;23.312;2022-08-01T01:38:19;4.43;;;2.30;;
8482;SDS011;4278;42.668;23.312;2022-08-01T01:40:47;2.77;;;2.10;;
8482;SDS011;4278;42.668;23.312;2022-08-01T01:43:15;2.35;;;2.00;;
8482;SDS011;4278;42.668;23.312;2022-08-01T01:45:43;2.00;;;1.80;;
8482;SDS011;4278;42.668;23.312;2022-08-01T01:48:12;1.77;;;1.67;;
8482;SDS011;4278;42.668;23.312;2022-08-01T01:50:39;3.78;;;1.80;;
8482;SDS011;4278;42.668;23.312;2022-08-01T01:53:07;3.85;;;2.33;;
8482;SDS011;4278;42.668;23.312;2022-08-01T01:55:35;2.78;;;2.10;;
8482;SDS011;4278;42.668;23.312;2022-08-01T01:58:03;4.68;;;1.70;;
8482;SDS011;4278;42.668;23.312;2022-08-01T02:00:31;2.10;;;1.90;;
8482;SDS011;4278;42.668;23.312;2022-08-01T02:02:58;2.03;;;1.65;;
8482;SDS011;4278;42.668;23.312;2022-08-01T02:05:29;2.08;;;1.60;;
8482;SDS011;4278;42.668;23.312;2022-08-01T02:07:56;3.38;;;1.77;;
8482;SDS011;4278;42.668;23.312;2022-08-01T02:10:23;1.73;;;1.50;;
8482;SDS011;4278;42.668;23.312;2022-08-01T02:12:50;2.83;;;2.00;;
8482;SDS011;4278;42.668;23.312;2022-08-01T02:15:17;2.10;;;1.88;;
8482;SDS011;4278;42.668;23.312;2022-08-01T02:17:45;9.52;;;2.13;;
8482;SDS011;4278;42.668;23.312;2022-08-01T02:20:13;5.50;;;1.80;;
8482;SDS011;4278;42.668;23.312;2022-08-01T02:22:44;2.90;;;1.50;;
8482;SDS011;4278;42.668;23.312;2022-08-01T02:25:15;3.78;;;1.52;;
8482;SDS011;4278;42.668;23.312;2022-08-01T02:27:45;5.70;;;2.35;;
8482;SDS011;4278;42.668;23.312;2022-08-01T02:30:13;3.38;;;1.80;;
8482;SDS011;4278;42.668;23.312;2022-08-01T02:32:42;2.80;;;1.50;;
8482;SDS011;4278;42.668;23.312;2022-08-01T02:35:11;2.15;;;1.45;;
8482;SDS011;4278;42.668;23.312;2022-08-01T02:37:39;1.77;;;1.67;;
8482;SDS011;4278;42.668;23.312;2022-08-01T02:40:09;1.70;;;1.60;;
8482;SDS011;4278;42.668;23.312;2022-08-01T02:42:37;2.75;;;1.70;;
8482;SDS011;4278;42.668;23.312;2022-08-01T02:45:05;1.70;;;1.60;;
8482;SDS011;4278;42.668;23.312;2022-08-01T02:47:33;2.15;;;1.73;;
8482;SDS011;4278;42.668;23.312;2022-08-01T02:50:02;1.90;;;1.63;;
8482;SDS011;4278;42.668;23.312;2022-08-01T02:52:29;5.20;;;1.90;;
8482;SDS011;4278;42.668;23.312;2022-08-01T02:54:57;1.70;;;1.60;;
8482;SDS011;4278;42.668;23.312;2022-08-01T02:57:25;5.18;;;2.05;;
8482;SDS011;4278;42.668;23.312;2022-08-01T02:59:52;2.47;;;1.85;;
8482;SDS011;4278;42.668;23.312;2022-08-01T03:02:20;2.20;;;2.00;;
8482;SDS011;4278;42.668;23.312;2022-08-01T03:04:49;3.00;;;2.00;;
8482;SDS011;4278;42.668;23.312;2022-08-01T03:07:16;2.70;;;1.98;;
8482;SDS011;4278;42.668;23.312;2022-08-01T03:09:44;3.53;;;1.85;;
8482;SDS011;4278;42.668;23.312;2022-08-01T03:12:13;2.70;;;2.33;;
8482;SDS011;4278;42.668;23.312;2022-08-01T03:14:41;2.33;;;1.88;;
8482;SDS011;4278;42.668;23.312;2022-08-01T03:17:08;3.40;;;2.17;;
8482;SDS011;4278;42.668;23.312;2022-08-01T03:19:36;3.15;;;2.10;;
8482;SDS011;4278;42.668;23.312;2022-08-01T03:22:05;3.67;;;1.90;;
8482;SDS011;4278;42.668;23.312;2022-08-01T03:24:33;2.70;;;2.25;;
8482;SDS011;4278;42.668;23.312;2022-08-01T03:27:00;2.42;;;2.22;;
8482;SDS011;4278;42.668;23.312;2022-08-01T03:29:27;4.93;;;2.60;;
8482;SDS011;4278;42.668;23.312;2022-08-01T03:31:56;3.10;;;2.72;;
8482;SDS011;4278;42.668;23.312;2022-08-01T03:34:23;5.37;;;2.50;;
8482;SDS011;4278;42.668;23.312;2022-08-01T03:36:52;4.38;;;2.50;;
8482;SDS011;4278;42.668;23.312;2022-08-01T03:39:19;3.83;;;2.90;;
8482;SDS011;4278;42.668;23.312;2022-08-01T03:41:51;2.65;;;2.45;;
8482;SDS011;4278;42.668;23.312;2022-08-01T03:44:20;5.40;;;2.80;;
8482;SDS011;4278;42.668;23.312;2022-08-01T03:46:50;3.27;;;2.97;;
8482;SDS011;4278;42.668;23.312;2022-08-01T03:49:19;2.77;;;2.50;;
8482;SDS011;4278;42.668;23.312;2022-08-01T03:51:48;4.40;;;2.37;;
8482;SDS011;4278;42.668;23.312;2022-08-01T03:54:15;4.22;;;2.30;;
8482;SDS011;4278;42.668;23.312;2022-08-01T03:56:42;8.15;;;2.30;;
8482;SDS011;4278;42.668;23.312;2022-08-01T03:59:09;5.63;;;3.05;;
8482;SDS011;4278;42.668;23.312;2022-08-01T04:01:36;5.43;;;2.60;;
8482;SDS011;4278;42.668;23.312;2022-08-01T04:04:04;4.10;;;2.20;;
8482;SDS011;4278;42.668;23.312;2022-08-01T04:06:32;7.15;;;2.63;;
8482;SDS011;4278;42.668;23.312;2022-08-01T04:08:59;4.63;;;2.50;;
8482;SDS011;4278;42.668;23.312;2022-08-01T04:11:27;5.00;;;2.60;;
8482;SDS011;4278;42.668;23.312;2022-08-01T04:13:54;7.13;;;3.33;;
8482;SDS011;4278;42.668;23.312;2022-08-01T04:16:20;4.25;;;3.28;;
8482;SDS011;4278;42.668;23.312;2022-08-01T04:18:47;4.50;;;2.90;;
8482;SDS011;4278;42.668;23.312;2022-08-01T04:21:13;6.90;;;3.78;;
8482;SDS011;4278;42.668;23.312;2022-08-01T04:23:41;6.18;;;2.80;;
8482;SDS011;4278;42.668;23.312;2022-08-01T04:26:10;5.38;;;3.38;;
8482;SDS011;4278;42.668;23.312;2022-08-01T04:28:37;3.85;;;3.00;;
8482;SDS011;4278;42.668;23.312;2022-08-01T04:31:05;5.15;;;3.08;;
8482;SDS011;4278;42.668;23.312;2022-08-01T04:33:34;4.45;;;3.83;;
8482;SDS011;4278;42.668;23.312;2022-08-01T04:36:02;3.80;;;3.50;;
8482;SDS011;4278;42.668;23.312;2022-08-01T04:38:30;5.57;;;4.28;;
8482;SDS011;4278;42.668;23.312;2022-08-01T04:40:59;7.38;;;4.85;;
8482;SDS011;4278;42.668;23.312;2022-08-01T04:43:27;10.23;;;4.38;;
8482;SDS011;4278;42.668;23.312;2022-08-01T04:45:54;6.93;;;4.40;;
8482;SDS011;4278;42.668;23.312;2022-08-01T04:48:21;5.70;;;4.35;;
8482;SDS011;4278;42.668;23.312;2022-08-01T04:50:49;7.05;;;4.50;;
8482;SDS011;4278;42.668;23.312;2022-08-01T04:53:16;9.85;;;4.30;;
8482;SDS011;4278;42.668;23.312;2022-08-01T04:55:43;6.97;;;4.35;;
8482;SDS011;4278;42.668;23.312;2022-08-01T04:58:12;7.57;;;4.57;;
8482;SDS011;4278;42.668;23.312;2022-08-01T05:00:39;10.80;;;4.55;;
8482;SDS011;4278;42.668;23.312;2022-08-01T05:03:06;5.70;;;4.47;;
8482;SDS011;4278;42.668;23.312;2022-08-01T05:05:33;10.80;;;5.00;;
8482;SDS011;4278;42.668;23.312;2022-08-01T05:08:00;9.90;;;4.70;;
8482;SDS011;4278;42.668;23.312;2022-08-01T05:10:27;8.85;;;4.82;;
8482;SDS011;4278;42.668;23.312;2022-08-01T05:12:54;5.32;;;4.20;;
8482;SDS011;4278;42.668;23.312;2022-08-01T05:15:22;7.50;;;4.95;;
8482;SDS011;4278;42.668;23.312;2022-08-01T05:17:48;10.80;;;5.25;;
8482;SDS011;4278;42.668;23.312;2022-08-01T05:20:15;6.97;;;4.50;;
8482;SDS011;4278;42.668;23.312;2022-08-01T05:22:42;11.07;;;4.32;;
8482;SDS011;4278;42.668;23.312;2022-08-01T05:25:08;10.52;;;5.07;;
8482;SDS011;4278;42.668;23.312;2022-08-01T05:27:35;10.27;;;4.70;;
8482;SDS011;4278;42.668;23.312;2022-08-01T05:30:05;11.75;;;5.20;;
8482;SDS011;4278;42.668;23.312;2022-08-01T05:32:34;7.53;;;4.72;;
8482;SDS011;4278;42.668;23.312;2022-08-01T05:35:00;6.38;;;4.47;;
8482;SDS011;4278;42.668;23.312;2022-08-01T05:37:27;7.47;;;4.35;;
8482;SDS011;4278;42.668;23.312;2022-08-01T05:39:55;6.97;;;4.38;;
8482;SDS011;4278;42.668;23.312;2022-08-01T05:42:21;6.70;;;4.35;;
8482;SDS011;4278;42.668;23.312;2022-08-01T05:44:48;15.23;;;4.72;;
8482;SDS011;4278;42.668;23.312;2022-08-01T05:47:16;12.20;;;5.07;;
8482;SDS011;4278;42.668;23.312;2022-08-01T05:49:44;8.30;;;4.15;;
8482;SDS011;4278;42.668;23.312;2022-08-01T05:52:10;6.55;;;3.88;;
8482;SDS011;4278;42.668;23.312;2022-08-01T05:54:37;4.85;;;3.25;;
8482;SDS011;4278;42.668;23.312;2022-08-01T05:57:04;3.10;;;2.80;;
8482;SDS011;4278;42.668;23.312;2022-08-01T05:59:31;4.88;;;3.30;;
8482;SDS011;4278;42.668;23.312;2022-08-01T06:01:57;6.00;;;3.50;;
8482;SDS011;4278;42.668;23.312;2022-08-01T06:04:24;3.70;;;3.03;;
8482;SDS011;4278;42.668;23.312;2022-08-01T06:06:52;4.60;;;3.00;;
8482;SDS011;4278;42.668;23.312;2022-08-01T06:09:18;4.25;;;2.88;;
8482;SDS011;4278;42.668;23.312;2022-08-01T06:11:45;5.00;;;3.20;;
8482;SDS011;4278;42.668;23.312;2022-08-01T06:14:11;2.53;;;2.33;;
8482;SDS011;4278;42.668;23.312;2022-08-01T06:16:38;4.13;;;3.20;;
8482;SDS011;4278;42.668;23.312;2022-08-01T06:19:22;3.65;;;2.53;;
8482;SDS011;4278;42.668;23.312;2022-08-01T06:21:48;5.90;;;2.80;;
8482;SDS011;4278;42.668;23.312;2022-08-01T06:24:16;2.53;;;2.28;;
8482;SDS011;4278;42.668;23.312;2022-08-01T06:26:43;3.30;;;2.38;;
8482;SDS011;4278;42.668;23.312;2022-08-01T06:29:09;10.90;;;6.30;;
8482;SDS011;4278;42.668;23.312;2022-08-01T06:31:36;6.18;;;2.45;;
8482;SDS011;4278;42.668;23.312;2022-08-01T06:34:02;3.78;;;2.33;;
8482;SDS011;4278;42.668;23.312;2022-08-01T06:36:29;4.22;;;2.10;;
8482;SDS011;4278;42.668;23.312;2022-08-01T06:38:55;3.70;;;2.47;;
8482;SDS011;4278;42.668;23.312;2022-08-01T06:41:23;5.70;;;2.83;;
8482;SDS011;4278;42.668;23.312;2022-08-01T06:43:50;6.70;;;2.50;;
8482;SDS011;4278;42.668;23.312;2022-08-01T06:46:16;2.70;;;2.10;;
8482;SDS011;4278;42.668;23.312;2022-08-01T06:48:43;2.35;;;2.15;;
8482;SDS011;4278;42.668;23.312;2022-08-01T06:51:10;3.80;;;2.60;;
8482;SDS011;4278;42.668;23.312;2022-08-01T06:53:39;2.90;;;2.30;;
8482;SDS011;4278;42.668;23.312;2022-08-01T06:56:06;3.53;;;2.53;;
8482;SDS011;4278;42.668;23.312;2022-08-01T06:58:35;5.18;;;3.05;;
8482;SDS011;4278;42.668;23.312;2022-08-01T07:01:02;2.13;;;1.92;;
8482;SDS011;4278;42.668;23.312;2022-08-01T07:03:30;3.90;;;2.50;;
8482;SDS011;4278;42.668;23.312;2022-08-01T07:05:57;3.25;;;2.67;;
8482;SDS011;4278;42.668;23.312;2022-08-01T07:08:24;4.30;;;2.60;;
8482;SDS011;4278;42.668;23.312;2022-08-01T07:10:50;6.95;;;3.17;;
8482;SDS011;4278;42.668;23.312;2022-08-01T07:13:17;2.53;;;2.33;;
8482;SDS011;4278;42.668;23.312;2022-08-01T07:15:50;4.72;;;2.72;;
8482;SDS011;4278;42.668;23.312;2022-08-01T07:18:16;4.20;;;2.50;;
8482;SDS011;4278;42.668;23.312;2022-08-01T07:20:43;2.70;;;2.42;;
8482;SDS011;4278;42.668;23.312;2022-08-01T07:23:11;4.15;;;2.42;;
8482;SDS011;4278;42.668;23.312;2022-08-01T07:25:37;7.05;;;2.85;;
8482;SDS011;4278;42.668;23.312;2022-08-01T07:28:04;4.70;;;2.63;;
8482;SDS011;4278;42.668;23.312;2022-08-01T07:30:31;6.85;;;2.83;;
8482;SDS011;4278;42.668;23.312;2022-08-01T07:32:59;5.45;;;2.50;;
8482;SDS011;4278;42.668;23.312;2022-08-01T07:35:25;4.57;;;2.25;;
8482;SDS011;4278;42.668;23.312;2022-08-01T07:37:52;2.15;;;1.95;;
8482;SDS011;4278;42.668;23.312;2022-08-01T07:40:19;2.70;;;2.47;;
8482;SDS011;4278;42.668;23.312;2022-08-01T07:42:46;3.58;;;2.70;;
8482;SDS011;4278;42.668;23.312;2022-08-01T07:45:13;5.70;;;2.90;;
8482;SDS011;4278;42.668;23.312;2022-08-01T07:47:40;2.60;;;2.22;;
8482;SDS011;4278;42.668;23.312;2022-08-01T07:50:08;6.68;;;2.58;;
8482;SDS011;4278;42.668;23.312;2022-08-01T07:52:35;3.20;;;2.33;;
8482;SDS011;4278;42.668;23.312;2022-08-01T07:55:02;7.10;;;2.30;;
8482;SDS011;4278;42.668;23.312;2022-08-01T07:57:28;3.17;;;2.50;;
8482;SDS011;4278;42.668;23.312;2022-08-01T07:59:55;3.30;;;2.50;;
8482;SDS011;4278;42.668;23.312;2022-08-01T08:02:22;4.80;;;2.55;;
8482;SDS011;4278;42.668;23.312;2022-08-01T08:04:49;3.80;;;2.67;;
8482;SDS011;4278;42.668;23.312;2022-08-01T08:07:17;2.67;;;2.28;;
8482;SDS011;4278;42.668;23.312;2022-08-01T08:09:44;7.05;;;2.53;;
8482;SDS011;4278;42.668;23.312;2022-08-01T08:12:10;4.57;;;2.80;;
8482;SDS011;4278;42.668;23.312;2022-08-01T08:14:37;2.78;;;2.28;;
8482;SDS011;4278;42.668;23.312;2022-08-01T08:17:04;4.55;;;2.50;;
8482;SDS011;4278;42.668;23.312;2022-08-01T08:19:30;3.03;;;2.47;;
8482;SDS011;4278;42.668;23.312;2022-08-01T08:21:58;2.88;;;2.15;;
8482;SDS011;4278;42.668;23.312;2022-08-01T08:24:26;3.70;;;2.33;;
8482;SDS011;4278;42.668;23.312;2022-08-01T08:26:53;4.65;;;2.17;;
8482;SDS011;4278;42.668;23.312;2022-08-01T08:29:20;5.10;;;2.50;;
8482;SDS011;4278;42.668;23.312;2022-08-01T08:31:47;3.25;;;2.47;;
8482;SDS011;4278;42.668;23.312;2022-08-01T08:34:14;3.08;;;2.30;;
8482;SDS011;4278;42.668;23.312;2022-08-01T08:36:41;4.72;;;2.35;;
8482;SDS011;4278;42.668;23.312;2022-08-01T08:39:07;2.35;;;2.15;;
8482;SDS011;4278;42.668;23.312;2022-08-01T08:41:35;3.70;;;2.22;;
8482;SDS011;4278;42.668;23.312;2022-08-01T08:44:02;3.15;;;2.80;;
8482;SDS011;4278;42.668;23.312;2022-08-01T08:46:29;4.00;;;2.72;;
8482;SDS011;4278;42.668;23.312;2022-08-01T08:48:57;3.15;;;2.40;;
8482;SDS011;4278;42.668;23.312;2022-08-01T08:51:29;2.70;;;2.10;;
8482;SDS011;4278;42.668;23.312;2022-08-01T08:53:56;3.15;;;2.13;;
8482;SDS011;4278;42.668;23.312;2022-08-01T08:56:24;2.33;;;2.13;;
8482;SDS011;4278;42.668;23.312;2022-08-01T08:58:52;3.20;;;2.30;;
8482;SDS011;4278;42.668;23.312;2022-08-01T09:01:19;5.25;;;2.58;;
8482;SDS011;4278;42.668;23.312;2022-08-01T09:03:46;2.55;;;2.20;;
8482;SDS011;4278;42.668;23.312;2022-08-01T09:06:13;4.00;;;2.20;;
8482;SDS011;4278;42.668;23.312;2022-08-01T09:08:40;4.97;;;2.80;;
8482;SDS011;4278;42.668;23.312;2022-08-01T09:11:07;4.82;;;1.80;;
8482;SDS011;4278;42.668;23.312;2022-08-01T09:13:33;3.85;;;1.80;;
8482;SDS011;4278;42.668;23.312;2022-08-01T09:16:01;1.98;;;1.75;;
8482;SDS011;4278;42.668;23.312;2022-08-01T09:18:29;4.57;;;2.17;;
8482;SDS011;4278;42.668;23.312;2022-08-01T09:21:09;2.10;;;1.77;;
8482;SDS011;4278;42.668;23.312;2022-08-01T09:23:37;2.40;;;2.03;;
8482;SDS011;4278;42.668;23.312;2022-08-01T09:26:07;4.15;;;2.10;;
8482;SDS011;4278;42.668;23.312;2022-08-01T09:28:34;4.68;;;1.90;;
8482;SDS011;4278;42.668;23.312;2022-08-01T09:31:07;3.15;;;2.47;;
8482;SDS011;4278;42.668;23.312;2022-08-01T09:36:15;3.05;;;2.20;;
8482;SDS011;4278;42.668;23.312;2022-08-01T09:38:42;2.72;;;1.90;;
8482;SDS011;4278;42.668;23.312;2022-08-01T09:41:09;2.40;;;2.13;;
8482;SDS011;4278;42.668;23.312;2022-08-01T09:43:36;3.92;;;1.80;;
8482;SDS011;4278;42.668;23.312;2022-08-01T09:46:04;3.58;;;2.15;;
8482;SDS011;4278;42.668;23.312;2022-08-01T09:48:32;1.80;;;1.70;;
8482;SDS011;4278;42.668;23.312;2022-08-01T09:50:59;2.53;;;1.90;;
8482;SDS011;4278;42.668;23.312;2022-08-01T09:53:26;2.78;;;2.03;;
8482;SDS011;4278;42.668;23.312;2022-08-01T09:55:53;3.25;;;2.10;;
8482;SDS011;4278;42.668;23.312;2022-08-01T09:58:20;2.15;;;1.95;;
8482;SDS011;4278;42.668;23.312;2022-08-01T10:00:57;2.47;;;2.28;;
8482;SDS011;4278;42.668;23.312;2022-08-01T10:03:25;2.30;;;2.10;;
8482;SDS011;4278;42.668;23.312;2022-08-01T10:05:53;2.55;;;2.20;;
8482;SDS011;4278;42.668;23.312;2022-08-01T10:08:20;3.72;;;2.20;;
8482;SDS011;4278;42.668;23.312;2022-08-01T10:13:29;3.67;;;2.33;;
8482;SDS011;4278;42.668;23.312;2022-08-01T10:15:56;2.53;;;2.33;;
8482;SDS011;4278;42.668;23.312;2022-08-01T10:18:23;2.50;;;2.30;;
8482;SDS011;4278;42.668;23.312;2022-08-01T10:20:49;2.38;;;2.17;;
8482;SDS011;4278;42.668;23.312;2022-08-01T10:23:18;3.80;;;2.80;;
8482;SDS011;4278;42.668;23.312;2022-08-01T10:25:45;3.50;;;2.67;;
8482;SDS011;4278;42.668;23.312;2022-08-01T10:28:13;1.98;;;1.83;;
8482;SDS011;4278;42.668;23.312;2022-08-01T10:30:41;4.07;;;2.28;;
8482;SDS011;4278;42.668;23.312;2022-08-01T10:33:08;2.47;;;2.20;;
8482;SDS011;4278;42.668;23.312;2022-08-01T10:35:35;4.85;;;2.33;;
8482;SDS011;4278;42.668;23.312;2022-08-01T10:38:02;3.72;;;2.42;;
8482;SDS011;4278;42.668;23.312;2022-08-01T10:40:30;2.90;;;2.10;;
8482;SDS011;4278;42.668;23.312;2022-08-01T10:42:57;3.88;;;2.50;;
8482;SDS011;4278;42.668;23.312;2022-08-01T10:45:24;2.50;;;2.20;;
8482;SDS011;4278;42.668;23.312;2022-08-01T10:47:53;4.18;;;2.20;;
8482;SDS011;4278;42.668;23.312;2022-08-01T10:50:27;4.40;;;2.30;;
8482;SDS011;4278;42.668;23.312;2022-08-01T10:53:12;2.78;;;2.13;;
8482;SDS011;4278;42.668;23.312;2022-08-01T10:55:50;2.30;;;2.10;;
8482;SDS011;4278;42.668;23.312;2022-08-01T10:58:20;4.07;;;2.20;;
8482;SDS011;4278;42.668;23.312;2022-08-01T11:00:47;3.20;;;2.08;;
8482;SDS011;4278;42.668;23.312;2022-08-01T11:03:13;4.20;;;2.53;;
8482;SDS011;4278;42.668;23.312;2022-08-01T11:05:40;3.05;;;2.30;;
8482;SDS011;4278;42.668;23.312;2022-08-01T11:08:09;2.38;;;2.17;;
8482;SDS011;4278;42.668;23.312;2022-08-01T11:10:37;3.40;;;2.08;;
8482;SDS011;4278;42.668;23.312;2022-08-01T11:13:05;3.42;;;2.17;;
8482;SDS011;4278;42.668;23.312;2022-08-01T11:15:33;2.38;;;1.80;;
8482;SDS011;4278;42.668;23.312;2022-08-01T11:18:03;4.07;;;2.80;;
8482;SDS011;4278;42.668;23.312;2022-08-01T11:20:31;2.58;;;2.22;;
8482;SDS011;4278;42.668;23.312;2022-08-01T11:26:08;5.60;;;2.10;;
8482;SDS011;4278;42.668;23.312;2022-08-01T11:28:37;2.95;;;2.10;;
8482;SDS011;4278;42.668;23.312;2022-08-01T11:33:50;2.70;;;2.22;;
8482;SDS011;4278;42.668;23.312;2022-08-01T11:36:17;2.33;;;2.05;;
8482;SDS011;4278;42.668;23.312;2022-08-01T11:38:45;2.70;;;2.28;;
8482;SDS011;4278;42.668;23.312;2022-08-01T11:41:13;3.25;;;2.50;;
8482;SDS011;4278;42.668;23.312;2022-08-01T11:51:52;6.50;;;2.92;;
8482;SDS011;4278;42.668;23.312;2022-08-01T11:54:24;3.22;;;2.88;;
8482;SDS011;4278;42.668;23.312;2022-08-01T11:56:53;3.58;;;2.45;;
8482;SDS011;4278;42.668;23.312;2022-08-01T11:59:20;4.10;;;2.50;;
8482;SDS011;4278;42.668;23.312;2022-08-01T12:01:47;3.15;;;2.60;;
8482;SDS011;4278;42.668;23.312;2022-08-01T12:04:14;4.13;;;2.60;;
8482;SDS011;4278;42.668;23.312;2022-08-01T12:06:40;3.33;;;2.55;;
8482;SDS011;4278;42.668;23.312;2022-08-01T12:09:18;3.33;;;3.03;;
8482;SDS011;4278;42.668;23.312;2022-08-01T12:11:45;3.25;;;2.35;;
8482;SDS011;4278;42.668;23.312;2022-08-01T12:14:18;3.05;;;2.75;;
8482;SDS011;4278;42.668;23.312;2022-08-01T12:16:51;3.28;;;2.70;;
8482;SDS011;4278;42.668;23.312;2022-08-01T12:19:19;3.75;;;2.30;;
8482;SDS011;4278;42.668;23.312;2022-08-01T12:24:29;3.13;;;2.60;;
8482;SDS011;4278;42.668;23.312;2022-08-01T12:26:55;5.10;;;2.58;;
8482;SDS011;4278;42.668;23.312;2022-08-01T12:29:34;2.83;;;2.53;;
8482;SDS011;4278;42.668;23.312;2022-08-01T12:32:01;4.38;;;3.05;;
8482;SDS011;4278;42.668;23.312;2022-08-01T12:34:29;3.17;;;2.78;;
8482;SDS011;4278;42.668;23.312;2022-08-01T12:36:56;3.25;;;2.60;;
8482;SDS011;4278;42.668;23.312;2022-08-01T12:39:30;3.30;;;3.00;;
8482;SDS011;4278;42.668;23.312;2022-08-01T12:41:57;3.22;;;2.72;;
8482;SDS011;4278;42.668;23.312;2022-08-01T12:44:24;2.63;;;2.42;;
8482;SDS011;4278;42.668;23.312;2022-08-01T12:46:55;2.70;;;2.17;;
8482;SDS011;4278;42.668;23.312;2022-08-01T12:49:22;2.20;;;2.00;;
8482;SDS011;4278;42.668;23.312;2022-08-01T12:51:49;3.08;;;2.10;;
8482;SDS011;4278;42.668;23.312;2022-08-01T12:54:16;3.35;;;2.47;;
8482;SDS011;4278;42.668;23.312;2022-08-01T12:56:44;2.60;;;2.17;;
8482;SDS011;4278;42.668;23.312;2022-08-01T12:59:21;2.60;;;2.40;;
8482;SDS011;4278;42.668;23.312;2022-08-01T13:01:50;3.85;;;3.40;;
8482;SDS011;4278;42.668;23.312;2022-08-01T13:04:16;2.75;;;2.42;;
8482;SDS011;4278;42.668;23.312;2022-08-01T13:06:43;3.70;;;2.50;;
8482;SDS011;4278;42.668;23.312;2022-08-01T13:09:11;2.75;;;2.55;;
8482;SDS011;4278;42.668;23.312;2022-08-01T13:11:38;3.90;;;2.25;;
8482;SDS011;4278;42.668;23.312;2022-08-01T13:14:07;4.53;;;4.13;;
8482;SDS011;4278;42.668;23.312;2022-08-01T13:16:34;3.70;;;2.80;;
8482;SDS011;4278;42.668;23.312;2022-08-01T13:19:11;4.10;;;2.45;;
8482;SDS011;4278;42.668;23.312;2022-08-01T13:21:38;3.05;;;2.45;;
8482;SDS011;4278;42.668;23.312;2022-08-01T13:24:06;3.35;;;2.78;;
8482;SDS011;4278;42.668;23.312;2022-08-01T13:26:38;3.17;;;2.80;;
8482;SDS011;4278;42.668;23.312;2022-08-01T13:29:07;3.75;;;2.92;;
8482;SDS011;4278;42.668;23.312;2022-08-01T13:31:34;2.80;;;2.40;;
8482;SDS011;4278;42.668;23.312;2022-08-01T13:34:01;3.35;;;2.83;;
8482;SDS011;4278;42.668;23.312;2022-08-01T13:36:28;2.50;;;2.30;;
8482;SDS011;4278;42.668;23.312;2022-08-01T13:38:56;2.88;;;2.50;;
8482;SDS011;4278;42.668;23.312;2022-08-01T13:41:40;4.00;;;2.10;;
8482;SDS011;4278;42.668;23.312;2022-08-01T13:44:08;2.47;;;2.28;;
8482;SDS011;4278;42.668;23.312;2022-08-01T13:46:36;2.72;;;2.38;;
8482;SDS011;4278;42.668;23.312;2022-08-01T13:49:02;2.67;;;2.47;;
8482;SDS011;4278;42.668;23.312;2022-08-01T13:51:29;3.78;;;2.40;;
8482;SDS011;4278;42.668;23.312;2022-08-01T13:53:56;2.88;;;2.65;;
8482;SDS011;4278;42.668;23.312;2022-08-01T13:56:23;3.80;;;2.78;;
8482;SDS011;4278;42.668;23.312;2022-08-01T13:58:49;2.70;;;2.50;;
8482;SDS011;4278;42.668;23.312;2022-08-01T14:01:17;4.47;;;2.50;;
8482;SDS011;4278;42.668;23.312;2022-08-01T14:03:44;2.78;;;2.30;;
8482;SDS011;4278;42.668;23.312;2022-08-01T14:06:11;5.55;;;2.45;;
8482;SDS011;4278;42.668;23.312;2022-08-01T14:08:39;3.72;;;2.60;;
8482;SDS011;4278;42.668;23.312;2022-08-01T14:11:06;2.58;;;2.38;;
8482;SDS011;4278;42.668;23.312;2022-08-01T14:13:33;2.67;;;2.42;;
8482;SDS011;4278;42.668;23.312;2022-08-01T14:16:02;6.07;;;2.90;;
8482;SDS011;4278;42.668;23.312;2022-08-01T14:18:30;3.25;;;2.33;;
8482;SDS011;4278;42.668;23.312;2022-08-01T14:20:57;2.75;;;2.10;;
8482;SDS011;4278;42.668;23.312;2022-08-01T14:23:24;2.95;;;2.20;;
8482;SDS011;4278;42.668;23.312;2022-08-01T14:25:51;3.00;;;2.53;;
8482;SDS011;4278;42.668;23.312;2022-08-01T14:28:18;4.07;;;2.47;;
8482;SDS011;4278;42.668;23.312;2022-08-01T14:30:45;2.90;;;2.30;;
8482;SDS011;4278;42.668;23.312;2022-08-01T14:33:12;3.58;;;2.40;;
8482;SDS011;4278;42.668;23.312;2022-08-01T14:35:41;3.50;;;2.80;;
8482;SDS011;4278;42.668;23.312;2022-08-01T14:38:08;4.15;;;2.50;;
8482;SDS011;4278;42.668;23.312;2022-08-01T14:40:35;2.92;;;2.33;;
8482;SDS011;4278;42.668;23.312;2022-08-01T14:43:02;2.20;;;2.03;;
8482;SDS011;4278;42.668;23.312;2022-08-01T14:45:28;2.97;;;2.25;;
8482;SDS011;4278;42.668;23.312;2022-08-01T14:47:55;3.08;;;2.33;;
8482;SDS011;4278;42.668;23.312;2022-08-01T14:50:21;2.60;;;2.40;;
8482;SDS011;4278;42.668;23.312;2022-08-01T14:52:50;3.95;;;2.38;;
8482;SDS011;4278;42.668;23.312;2022-08-01T14:55:17;3.90;;;2.67;;
8482;SDS011;4278;42.668;23.312;2022-08-01T14:57:48;2.45;;;2.25;;
8482;SDS011;4278;42.668;23.312;2022-08-01T15:00:15;2.72;;;2.35;;
8482;SDS011;4278;42.668;23.312;2022-08-01T15:02:42;3.30;;;2.65;;
8482;SDS011;4278;42.668;23.312;2022-08-01T15:05:09;4.32;;;3.92;;
8482;SDS011;4278;42.668;23.312;2022-08-01T15:07:36;3.63;;;2.60;;
8482;SDS011;4278;42.668;23.312;2022-08-01T15:10:05;6.05;;;3.20;;
8482;SDS011;4278;42.668;23.312;2022-08-01T15:12:32;4.88;;;2.70;;
8482;SDS011;4278;42.668;23.312;2022-08-01T15:14:59;4.65;;;2.85;;
8482;SDS011;4278;42.668;23.312;2022-08-01T15:17:26;2.90;;;2.40;;
8482;SDS011;4278;42.668;23.312;2022-08-01T15:19:54;2.40;;;2.20;;
8482;SDS011;4278;42.668;23.312;2022-08-01T15:22:22;3.10;;;2.20;;
8482;SDS011;4278;42.668;23.312;2022-08-01T15:24:49;2.42;;;2.22;;
8482;SDS011;4278;42.668;23.312;2022-08-01T15:27:17;3.25;;;2.00;;